Time;durP1;ratioP1;P1;durP2;ratioP2;P2;SDS_P1;SDS_P2;PMS_P1;PMS_P2;Temp;Humidity;BMP_temperature;BMP_pressure;BME280_temperature;BME280_humidity;BME280_pressure;Samples;Min_cycle;Max_cycle;Signal;HPM_P1;HPM_P2
2022/05/29 00:01:57;;;;;;;3.47;1.92;;;10.50;99.90;;;;;;5077289;28;20044;-80
2022/05/29 00:04:24;;;;;;;4.03;2.03;;;10.40;99.90;;;;;;5076844;28;20052;-80
2022/05/29 00:06:52;;;;;;;5.07;1.58;;;10.40;99.90;;;;;;5094114;28;20123;-80
2022/05/29 00:09:25;;;;;;;3.65;1.60;;;10.30;99.90;;;;;;5075983;28;20048;-80
2022/05/29 00:11:52;;;;;;;5.35;1.60;;;10.30;99.90;;;;;;5077303;28;20051;-81
2022/05/29 00:14:20;;;;;;;2.45;1.50;;;10.30;99.90;;;;;;5093550;28;20048;-81
2022/05/29 00:16:49;;;;;;;2.90;1.40;;;10.20;99.90;;;;;;5093115;28;20044;-81
2022/05/29 00:19:16;;;;;;;2.53;1.50;;;10.20;99.90;;;;;;5093179;28;20047;-80
2022/05/29 00:21:43;;;;;;;2.92;1.55;;;10.10;99.90;;;;;;5093463;28;20044;-81
2022/05/29 00:24:10;;;;;;;5.88;1.70;;;10.10;99.90;;;;;;5092605;28;20145;-80
2022/05/29 00:26:37;;;;;;;4.80;1.58;;;10.10;99.90;;;;;;5092450;28;20040;-80
2022/05/29 00:29:04;;;;;;;2.90;1.45;;;10.10;99.90;;;;;;5093835;28;20043;-81
2022/05/29 00:31:30;;;;;;;4.32;1.48;;;10.00;99.90;;;;;;5093405;28;20048;-80
2022/05/29 00:33:58;;;;;;;3.17;1.95;;;10.00;99.90;;;;;;5094264;28;20089;-80
2022/05/29 00:36:31;;;;;;;3.13;1.55;;;10.00;99.90;;;;;;5091485;28;20048;-81
2022/05/29 00:38:58;;;;;;;;;;;10.00;99.90;;;;;;5076158;28;20040;-79
2022/05/29 00:41:30;;;;;;;3.20;1.52;;;10.00;99.90;;;;;;5092140;28;19927;-80
2022/05/29 00:44:17;;;;;;;10.10;1.83;;;10.00;99.90;;;;;;5092345;28;20048;-81
2022/05/29 00:47:00;;;;;;;2.38;1.40;;;10.00;99.90;;;;;;5076202;28;20097;-81
2022/05/29 00:49:34;;;;;;;4.40;1.65;;;10.00;99.90;;;;;;5093589;28;20467;-81
2022/05/29 00:52:07;;;;;;;3.45;1.58;;;10.00;99.90;;;;;;5075680;28;20043;-80
2022/05/29 00:54:46;;;;;;;5.25;1.60;;;9.90;99.90;;;;;;5091944;28;20040;-80
2022/05/29 00:57:15;;;;;;;2.40;1.52;;;9.90;99.90;;;;;;5076847;28;20044;-80
2022/05/29 00:59:42;;;;;;;6.70;2.78;;;9.80;99.90;;;;;;5093283;28;20044;-81
2022/05/29 01:02:09;;;;;;;3.65;3.22;;;9.80;99.90;;;;;;5095488;28;20043;-81
2022/05/29 01:04:37;;;;;;;6.75;5.10;;;9.80;99.90;;;;;;5093077;28;20502;-81
2022/05/29 01:07:06;;;;;;;6.75;4.55;;;9.70;99.90;;;;;;5059985;28;20047;-81
2022/05/29 01:09:34;;;;;;;5.28;3.38;;;9.70;99.90;;;;;;5076454;28;20044;-81
2022/05/29 01:12:26;;;;;;;6.03;2.78;;;9.70;99.90;;;;;;5093013;28;20048;-81
2022/05/29 01:15:08;;;;;;;6.35;2.17;;;9.60;99.90;;;;;;5091785;28;20491;-81
2022/05/29 01:18:02;;;;;;;3.25;1.55;;;9.50;99.90;;;;;;5092627;28;20047;-81
2022/05/29 01:20:38;;;;;;;6.50;1.80;;;9.50;99.90;;;;;;5075517;28;20044;-80
2022/05/29 01:23:28;;;;;;;6.28;1.95;;;9.50;99.90;;;;;;5093090;28;20054;-81
2022/05/29 01:26:23;;;;;;;5.18;1.52;;;9.40;99.90;;;;;;5092305;28;20056;-81
2022/05/29 01:29:03;;;;;;;3.80;1.70;;;9.40;99.90;;;;;;5092996;28;20440;-81
2022/05/29 01:31:56;;;;;;;5.38;2.20;;;9.30;99.90;;;;;;5095585;28;20463;-81
2022/05/29 01:34:53;;;;;;;3.17;2.00;;;9.30;99.90;;;;;;5080449;28;20044;-80
2022/05/29 01:37:21;;;;;;;4.70;2.10;;;9.40;99.90;;;;;;5095639;28;20464;-80
2022/05/29 01:40:28;;;;;;;5.85;1.85;;;9.40;99.90;;;;;;5096199;28;20375;-81
2022/05/29 01:43:00;;;;;;;3.22;1.42;;;9.40;99.90;;;;;;5092578;28;20161;-81
2022/05/29 01:45:54;;;;;;;3.53;1.70;;;9.30;99.90;;;;;;5078910;28;20130;-80
2022/05/29 01:48:42;;;;;;;4.65;1.55;;;9.30;99.90;;;;;;5096759;28;20043;-81
2022/05/29 01:51:15;;;;;;;5.72;2.13;;;9.30;99.90;;;;;;5095134;28;20044;-81
2022/05/29 01:53:45;;;;;;;5.88;1.95;;;9.30;99.90;;;;;;5095189;28;20052;-81
2022/05/29 01:56:20;;;;;;;5.40;1.98;;;9.20;99.90;;;;;;5079626;28;20126;-81
2022/05/29 01:58:56;;;;;;;5.57;1.77;;;9.20;99.90;;;;;;5095299;28;20040;-81
2022/05/29 02:01:25;;;;;;;6.35;2.28;;;9.20;99.90;;;;;;5062173;28;20048;-81
2022/05/29 02:03:52;;;;;;;5.10;2.00;;;9.20;99.90;;;;;;5078124;28;20040;-81
2022/05/29 02:06:23;;;;;;;6.30;2.13;;;9.10;99.90;;;;;;5095652;28;20474;-80
2022/05/29 02:09:02;;;;;;;5.40;2.72;;;9.10;99.90;;;;;;5062923;28;20091;-81
2022/05/29 02:11:30;;;;;;;5.95;2.10;;;9.10;99.90;;;;;;5095910;28;20050;-81
2022/05/29 02:13:57;;;;;;;5.85;3.22;;;9.00;99.90;;;;;;5078782;28;20050;-80
2022/05/29 02:16:29;;;;;;;5.18;2.38;;;8.90;99.90;;;;;;5099119;28;20043;-81
2022/05/29 02:19:04;;;;;;;4.20;1.77;;;8.90;99.90;;;;;;5077824;28;20498;-80
2022/05/29 02:21:52;;;;;;;5.28;2.10;;;8.90;99.90;;;;;;5079734;28;20047;-81
2022/05/29 02:24:22;;;;;;;6.32;2.13;;;8.90;99.90;;;;;;5095417;28;20039;-81
2022/05/29 02:27:06;;;;;;;3.83;1.60;;;8.90;99.90;;;;;;5078933;28;20061;-81
2022/05/29 02:29:33;;;;;;;3.97;2.15;;;8.80;99.90;;;;;;5078244;28;20499;-81
2022/05/29 02:32:15;;;;;;;3.58;2.42;;;8.80;99.90;;;;;;5094324;28;20043;-80
2022/05/29 02:35:08;;;;;;;6.05;2.50;;;8.80;99.90;;;;;;5064415;28;20050;-81
2022/05/29 02:37:45;;;;;;;4.20;1.95;;;8.80;99.90;;;;;;5096291;28;20044;-80
2022/05/29 02:40:23;;;;;;;6.50;2.50;;;8.70;99.90;;;;;;5061923;28;20410;-81
2022/05/29 02:43:08;;;;;;;5.25;2.50;;;8.70;99.90;;;;;;5096282;28;20044;-81
2022/05/29 02:45:40;;;;;;;5.80;3.17;;;8.70;99.90;;;;;;5094052;28;20048;-81
2022/05/29 02:48:20;;;;;;;6.85;2.97;;;8.70;99.90;;;;;;5095194;28;20109;-81
2022/05/29 02:50:50;;;;;;;6.33;2.10;;;8.70;99.90;;;;;;5095195;28;20040;-80
2022/05/29 02:53:17;;;;;;;3.25;1.67;;;8.70;99.90;;;;;;5095466;28;20482;-81
2022/05/29 02:55:44;;;;;;;5.05;1.70;;;8.60;99.90;;;;;;5078253;28;20054;-81
2022/05/29 02:58:19;;;;;;;4.90;1.77;;;8.50;99.90;;;;;;5094175;28;20383;-81
2022/05/29 03:01:14;;;;;;;5.00;1.98;;;8.50;99.90;;;;;;5061411;28;20468;-81
2022/05/29 03:04:00;;;;;;;5.88;1.90;;;8.40;99.90;;;;;;5094089;28;20047;-81
2022/05/29 03:06:58;;;;;;;8.98;2.38;;;8.40;99.90;;;;;;5078220;28;20414;-81
2022/05/29 03:09:53;;;;;;;3.88;2.20;;;8.40;99.90;;;;;;5094139;28;20051;-81
2022/05/29 03:12:29;;;;;;;5.95;2.00;;;8.40;99.90;;;;;;5094772;28;20040;-81
2022/05/29 03:15:19;;;;;;;7.65;2.20;;;8.40;99.90;;;;;;5094321;28;20139;-81
2022/05/29 03:18:33;;;;;;;5.82;1.95;;;8.40;99.90;;;;;;5094017;28;20044;-81
2022/05/29 03:21:34;;;;;;;6.28;2.22;;;8.40;99.90;;;;;;5083465;28;20395;-81
2022/05/29 03:24:24;;;;;;;5.40;2.47;;;8.40;99.90;;;;;;5094179;28;20051;-81
2022/05/29 03:27:21;;;;;;;6.97;2.85;;;8.30;99.90;;;;;;5093242;28;20040;-81
2022/05/29 03:29:52;;;;;;;5.97;2.00;;;8.30;99.90;;;;;;5079772;28;20387;-81
2022/05/29 03:32:19;;;;;;;4.68;2.30;;;8.30;99.90;;;;;;5076955;28;20048;-81
2022/05/29 03:34:46;;;;;;;4.07;1.85;;;8.30;99.90;;;;;;5093178;28;20390;-80
2022/05/29 03:37:12;;;;;;;4.32;2.38;;;8.30;99.90;;;;;;5093386;28;20044;-81
2022/05/29 03:39:39;;;;;;;5.32;2.35;;;8.30;99.90;;;;;;5095024;28;20055;-81
2022/05/29 03:42:07;;;;;;;9.20;2.65;;;8.30;99.90;;;;;;5095273;28;20066;-81
2022/05/29 03:44:34;;;;;;;6.22;2.38;;;8.20;99.90;;;;;;5093965;28;20043;-81
2022/05/29 03:47:00;;;;;;;4.68;2.00;;;8.20;99.90;;;;;;5100014;28;20051;-81
2022/05/29 03:49:28;;;;;;;6.32;2.15;;;8.20;99.90;;;;;;5095505;28;20040;-81
2022/05/29 03:51:55;;;;;;;7.32;2.13;;;8.20;99.90;;;;;;5092132;28;20047;-81
2022/05/29 03:54:22;;;;;;;7.07;2.15;;;8.20;99.90;;;;;;5094129;28;20046;-81
2022/05/29 03:56:49;;;;;;;7.40;2.47;;;8.20;99.90;;;;;;5092990;28;20439;-81
2022/05/29 03:59:16;;;;;;;6.68;2.58;;;8.30;99.90;;;;;;5093574;28;20044;-81
2022/05/29 04:01:43;;;;;;;9.60;3.38;;;8.20;99.90;;;;;;5092714;28;20050;-81
2022/05/29 04:04:10;;;;;;;6.97;2.50;;;8.20;99.90;;;;;;5076236;28;20224;-81
2022/05/29 04:06:40;;;;;;;6.05;2.90;;;8.20;99.90;;;;;;5093664;28;20090;-81
2022/05/29 04:12:05;;;;;;;6.97;2.17;;;8.30;99.90;;;;;;5093921;28;20055;-81
2022/05/29 04:14:42;;;;;;;5.65;2.53;;;8.20;99.90;;;;;;5078571;28;20105;-75
2022/05/29 04:17:11;;;;;;;13.52;6.38;;;8.30;99.90;;;;;;5076293;28;20040;-60
2022/05/29 04:19:39;;;;;;;10.80;5.45;;;8.30;99.90;;;;;;5093564;28;20040;-83
2022/05/29 04:22:09;;;;;;;6.57;2.95;;;8.40;99.90;;;;;;5076211;28;20079;-78
2022/05/29 04:24:36;;;;;;;11.32;3.22;;;8.40;99.90;;;;;;5093410;28;20047;-78
2022/05/29 04:27:04;;;;;;;6.78;2.42;;;8.40;99.90;;;;;;5075817;28;20040;-79
2022/05/29 04:29:32;;;;;;;6.40;2.40;;;8.40;99.90;;;;;;5093397;28;20506;-78
2022/05/29 04:34:44;;;;;;;10.35;3.08;;;8.50;99.90;;;;;;5094255;28;20044;-78
2022/05/29 04:37:11;;;;;;;9.85;2.10;;;8.50;99.90;;;;;;5093147;28;20051;-79
2022/05/29 04:39:38;;;;;;;6.03;2.35;;;8.60;99.90;;;;;;5092395;28;20040;-80
2022/05/29 04:42:05;;;;;;;8.50;2.80;;;8.80;99.90;;;;;;5092153;28;20043;-80
2022/05/29 04:44:32;;;;;;;8.38;2.47;;;9.20;99.90;;;;;;5093511;28;20044;-79
2022/05/29 04:46:59;;;;;;;8.20;3.00;;;9.60;99.90;;;;;;5093559;28;20043;-80
2022/05/29 04:49:27;;;;;;;5.55;2.58;;;10.00;99.90;;;;;;5093498;28;20052;-79
2022/05/29 04:51:53;;;;;;;4.88;2.03;;;10.40;99.90;;;;;;5092001;28;20495;-79
2022/05/29 04:54:23;;;;;;;11.45;3.78;;;11.00;99.90;;;;;;5093976;28;20082;-80
2022/05/29 04:56:51;;;;;;;5.30;2.17;;;11.40;99.90;;;;;;5094234;28;20051;-79
2022/05/29 04:59:18;;;;;;;6.30;2.00;;;11.70;99.90;;;;;;5092622;28;20044;-80
2022/05/29 05:01:45;;;;;;;8.63;2.10;;;12.20;99.90;;;;;;5093144;28;20040;-82
2022/05/29 05:04:12;;;;;;;5.80;2.58;;;12.50;99.90;;;;;;5078005;28;20047;-81
2022/05/29 05:06:39;;;;;;;5.25;2.00;;;12.90;99.90;;;;;;5097369;28;20051;-81
2022/05/29 05:09:06;;;;;;;4.70;1.90;;;13.20;99.90;;;;;;5097485;28;20426;-80
2022/05/29 05:11:33;;;;;;;5.22;1.70;;;13.50;99.90;;;;;;5079512;28;20040;-80
2022/05/29 05:14:00;;;;;;;6.10;1.80;;;13.60;99.90;;;;;;5096123;28;20044;-82
2022/05/29 05:16:27;;;;;;;7.70;2.55;;;13.70;99.90;;;;;;5096410;28;20427;-83
2022/05/29 05:18:54;;;;;;;4.07;2.00;;;13.80;99.90;;;;;;5096044;28;20047;-83
2022/05/29 05:21:21;;;;;;;5.32;2.15;;;14.10;99.90;;;;;;5095746;28;20036;-81
2022/05/29 05:23:48;;;;;;;6.10;2.08;;;14.20;99.90;;;;;;5096927;28;20066;-82
2022/05/29 05:26:16;;;;;;;2.42;1.58;;;14.30;99.90;;;;;;5097667;28;20040;-80
2022/05/29 05:28:43;;;;;;;6.65;2.13;;;14.60;98.40;;;;;;5096760;28;20051;-80
2022/05/29 05:31:10;;;;;;;3.55;1.52;;;14.60;96.20;;;;;;5097030;28;20048;-81
2022/05/29 05:33:37;;;;;;;6.80;2.92;;;14.50;96.30;;;;;;5097022;28;20089;-81
2022/05/29 05:36:05;;;;;;;4.75;2.10;;;14.60;96.20;;;;;;5096632;28;20036;-81
2022/05/29 05:38:33;;;;;;;;;;;14.40;94.90;;;;;;5079843;28;20044;-81
2022/05/29 05:41:00;;;;;;;5.78;2.10;;;14.40;94.70;;;;;;5096920;28;19923;-80
2022/05/29 05:43:27;;;;;;;5.95;2.03;;;14.20;94.60;;;;;;5095596;28;20044;-81
2022/05/29 05:45:54;;;;;;;6.90;2.58;;;14.10;95.40;;;;;;5095489;28;20052;-80
2022/05/29 05:48:23;;;;;;;6.97;1.70;;;14.10;95.30;;;;;;5096774;28;20044;-82
2022/05/29 05:50:54;;;;;;;4.93;1.35;;;14.00;95.60;;;;;;5095283;28;20051;-82
2022/05/29 05:53:21;;;;;;;4.07;2.20;;;13.60;95.50;;;;;;5097484;28;20040;-81
2022/05/29 05:55:48;;;;;;;6.35;2.40;;;13.60;96.90;;;;;;5096670;28;20046;-81
2022/05/29 05:58:15;;;;;;;6.40;2.05;;;13.40;97.20;;;;;;5095199;28;20047;-80
2022/05/29 06:00:45;;;;;;;9.02;2.70;;;13.00;97.50;;;;;;5095025;28;20047;-82
2022/05/29 06:03:12;;;;;;;3.78;1.80;;;13.00;98.70;;;;;;5078325;28;20048;-81
2022/05/29 06:05:39;;;;;;;8.32;2.05;;;13.20;98.70;;;;;;5078173;28;20040;-81
2022/05/29 06:08:06;;;;;;;5.00;2.38;;;13.20;98.60;;;;;;5094984;28;20380;-80
2022/05/29 06:10:33;;;;;;;3.63;1.80;;;13.00;98.50;;;;;;5096566;28;20044;-81
2022/05/29 06:13:04;;;;;;;6.43;1.80;;;12.90;99.60;;;;;;5096336;28;20051;-81
2022/05/29 06:15:31;;;;;;;8.45;2.25;;;12.70;99.90;;;;;;5094464;28;20040;-80
2022/05/29 06:17:58;;;;;;;5.45;1.85;;;12.60;99.90;;;;;;5078976;28;20044;-80
2022/05/29 06:20:25;;;;;;;6.55;2.45;;;12.30;99.90;;;;;;5094971;28;20044;-80
2022/05/29 06:22:52;;;;;;;4.95;2.47;;;12.20;99.90;;;;;;5077909;28;20055;-79
2022/05/29 06:25:19;;;;;;;5.45;1.73;;;12.20;99.90;;;;;;5096166;28;20040;-79
2022/05/29 06:27:46;;;;;;;4.55;1.83;;;12.20;99.90;;;;;;5094511;28;20050;-79
2022/05/29 06:30:15;;;;;;;3.25;1.60;;;12.20;99.90;;;;;;5095074;28;20048;-79
2022/05/29 06:32:41;;;;;;;5.95;1.60;;;12.20;99.90;;;;;;5097108;28;20047;-79
2022/05/29 06:35:10;;;;;;;7.30;2.28;;;12.20;99.90;;;;;;5095174;28;20066;-80
2022/05/29 06:37:37;;;;;;;6.80;2.45;;;12.30;99.90;;;;;;5078454;28;20384;-80
2022/05/29 06:40:05;;;;;;;5.85;2.20;;;12.20;99.90;;;;;;5095852;28;20066;-80
2022/05/29 06:42:32;;;;;;;8.38;3.03;;;12.20;99.90;;;;;;5077971;28;20040;-80
2022/05/29 06:44:59;;;;;;;5.28;1.88;;;12.20;99.90;;;;;;5095784;28;20464;-80
2022/05/29 06:47:26;;;;;;;4.72;1.75;;;12.10;99.90;;;;;;5094015;28;20480;-81
2022/05/29 06:49:53;;;;;;;6.20;1.90;;;12.00;99.90;;;;;;5094386;28;20035;-81
2022/05/29 06:52:20;;;;;;;5.15;1.70;;;12.10;99.90;;;;;;5094804;28;20125;-79
2022/05/29 06:54:46;;;;;;;6.18;2.08;;;12.30;99.90;;;;;;5094575;28;20047;-79
2022/05/29 06:57:36;;;;;;;8.38;2.33;;;12.40;99.90;;;;;;5096364;28;20058;-79
2022/05/29 07:08:06;;;;;;;3.83;1.52;;;12.50;99.90;;;;;;5096180;28;20040;-79
2022/05/29 07:10:32;;;;;;;4.53;1.80;;;12.50;99.90;;;;;;5094187;28;20035;-79
2022/05/29 07:13:00;;;;;;;7.93;1.95;;;12.50;99.90;;;;;;5094512;28;20040;-80
2022/05/29 07:15:30;;;;;;;5.78;1.90;;;12.60;99.90;;;;;;5093623;28;20046;-79
2022/05/29 07:17:59;;;;;;;5.40;1.80;;;12.60;99.90;;;;;;5093579;28;20502;-79
2022/05/29 07:20:26;;;;;;;6.53;1.70;;;12.60;99.90;;;;;;5094136;28;20356;-81
2022/05/29 07:22:53;;;;;;;5.38;2.70;;;12.70;99.90;;;;;;5093712;28;20044;-80
2022/05/29 07:25:20;;;;;;;5.55;1.90;;;12.70;99.90;;;;;;5094776;28;20050;-80
2022/05/29 07:27:47;;;;;;;6.80;2.67;;;12.80;99.90;;;;;;5093274;28;20050;-79
2022/05/29 07:30:14;;;;;;;36.50;28.67;;;12.80;99.90;;;;;;5095558;28;20047;-76
2022/05/29 07:32:40;;;;;;;6.90;3.55;;;13.00;99.90;;;;;;5094467;28;20040;-80
2022/05/29 07:35:08;;;;;;;6.35;1.70;;;13.10;99.90;;;;;;5095239;28;20040;-80
2022/05/29 07:37:35;;;;;;;5.32;2.00;;;13.20;99.90;;;;;;5095093;28;20044;-79
2022/05/29 07:40:02;;;;;;;4.90;1.92;;;12.90;99.90;;;;;;5093588;28;20048;-79
2022/05/29 07:45:15;;;;;;;6.82;1.77;;;12.70;99.90;;;;;;5094419;28;20056;-79
2022/05/29 07:47:42;;;;;;;6.32;1.98;;;12.80;99.90;;;;;;5094334;28;20044;-79
2022/05/29 07:50:16;;;;;;;7.57;2.58;;;12.80;99.90;;;;;;5076241;28;20044;-79
2022/05/29 07:52:44;;;;;;;4.78;2.15;;;12.70;99.90;;;;;;5093675;28;20062;-79
2022/05/29 07:55:11;;;;;;;4.78;2.25;;;12.70;99.90;;;;;;5092690;28;20130;-80
2022/05/29 07:57:38;;;;;;;4.65;2.00;;;12.70;99.90;;;;;;5092681;28;20044;-80
2022/05/29 08:00:06;;;;;;;6.10;1.83;;;12.70;99.90;;;;;;5075922;28;20044;-78
2022/05/29 08:02:34;;;;;;;13.95;8.98;;;12.60;99.90;;;;;;5094625;28;20044;-64
2022/05/29 08:05:05;;;;;;;6.70;2.83;;;12.70;99.90;;;;;;5094080;28;20391;-80
2022/05/29 08:07:32;;;;;;;5.50;1.80;;;12.70;99.90;;;;;;5092473;28;20059;-79
2022/05/29 08:09:59;;;;;;;5.82;1.63;;;12.70;99.90;;;;;;5093341;28;20047;-79
2022/05/29 08:12:26;;;;;;;7.13;1.80;;;12.80;99.90;;;;;;5092377;28;20050;-80
2022/05/29 08:14:55;;;;;;;4.53;2.30;;;12.80;99.90;;;;;;5092429;28;20048;-79
2022/05/29 08:17:22;;;;;;;6.93;2.20;;;12.90;99.90;;;;;;5093787;28;20044;-80
2022/05/29 08:19:49;;;;;;;6.07;1.75;;;13.10;99.90;;;;;;5092881;28;20439;-80
2022/05/29 08:22:16;;;;;;;4.40;1.92;;;13.20;99.90;;;;;;5093704;28;20052;-80
2022/05/29 08:33:17;;;;;;;4.90;1.98;;;13.10;99.90;;;;;;5092354;28;20044;-80
2022/05/29 08:35:49;;;;;;;4.55;1.48;;;13.00;99.90;;;;;;5093125;28;20051;-80
2022/05/29 08:38:17;;;;;;;5.40;1.90;;;13.10;99.90;;;;;;5092387;28;20044;-79
2022/05/29 08:40:51;;;;;;;3.63;2.15;;;13.30;99.90;;;;;;5075576;28;20053;-80
2022/05/29 08:43:33;;;;;;;10.38;1.92;;;13.40;99.90;;;;;;5092031;28;20048;-80
2022/05/29 08:46:12;;;;;;;6.78;2.47;;;13.50;99.90;;;;;;5094072;28;20044;-80
2022/05/29 08:48:39;;;;;;;7.43;2.90;;;13.70;99.90;;;;;;5077885;28;20055;-80
2022/05/29 08:51:30;;;;;;;4.20;1.73;;;13.60;99.90;;;;;;5092955;28;20055;-79
2022/05/29 08:54:09;;;;;;;4.90;1.70;;;13.60;99.90;;;;;;5092486;28;20046;-79
2022/05/29 08:56:57;;;;;;;6.33;2.00;;;13.60;99.90;;;;;;5092920;28;20044;-79
2022/05/29 08:59:58;;;;;;;3.60;1.90;;;13.40;99.90;;;;;;5092436;28;20055;-79
2022/05/29 09:02:46;;;;;;;6.50;2.05;;;13.40;99.90;;;;;;5093672;28;20059;-79
2022/05/29 09:05:17;;;;;;;4.38;2.58;;;13.40;99.90;;;;;;5093433;28;20424;-79
2022/05/29 09:07:44;;;;;;;5.40;2.55;;;13.50;99.90;;;;;;5091776;28;20036;-79
2022/05/29 09:10:16;;;;;;;8.50;2.50;;;13.50;99.90;;;;;;5092075;28;20044;-78
2022/05/29 09:12:52;;;;;;;3.80;1.67;;;13.60;99.90;;;;;;5092955;28;20052;-81
2022/05/29 09:15:32;;;;;;;3.03;1.33;;;13.60;99.90;;;;;;5076560;28;20048;-79
2022/05/29 09:18:01;;;;;;;6.50;1.60;;;13.60;99.70;;;;;;5078095;28;20059;-79
2022/05/29 09:21:03;;;;;;;5.00;1.50;;;13.50;99.90;;;;;;5095300;28;20043;-78
2022/05/29 09:23:43;;;;;;;2.90;1.67;;;13.70;99.90;;;;;;5092856;28;20483;-81
2022/05/29 09:26:12;;;;;;;4.13;1.40;;;13.70;99.30;;;;;;5075690;28;20040;-79
2022/05/29 09:28:39;;;;;;;2.60;1.02;;;14.00;97.70;;;;;;5075455;28;20044;-79
2022/05/29 09:31:15;;;;;;;5.15;2.15;;;14.30;95.50;;;;;;5091689;28;20468;-78
2022/05/29 09:33:43;;;;;;;4.95;1.90;;;14.40;92.50;;;;;;5091677;28;20468;-70
2022/05/29 09:36:34;;;;;;;2.83;1.30;;;14.60;91.10;;;;;;5091872;28;20486;-70
2022/05/29 09:39:14;;;;;;;10.57;3.17;;;14.80;90.80;;;;;;5091523;28;20135;-70
2022/05/29 09:41:46;;;;;;;9.10;6.78;;;14.90;91.60;;;;;;5077064;28;20044;-74
2022/05/29 09:44:18;;;;;;;10.82;7.80;;;15.30;91.20;;;;;;5093613;28;20051;-75
2022/05/29 09:46:48;;;;;;;4.05;1.58;;;15.50;89.30;;;;;;5092160;28;20466;-73
2022/05/29 09:52:26;;;;;;;4.47;1.08;;;15.50;86.50;;;;;;5097366;28;20043;-72
2022/05/29 09:54:53;;;;;;;3.67;1.42;;;15.30;82.60;;;;;;5096335;28;20040;-72
2022/05/29 09:57:24;;;;;;;4.07;1.08;;;15.40;84.20;;;;;;5095115;28;20044;-71
2022/05/29 10:00:00;;;;;;;3.03;1.02;;;15.40;82.90;;;;;;5096956;28;20036;-72
2022/05/29 10:02:31;;;;;;;1.60;1.10;;;15.30;81.20;;;;;;5078417;28;20044;-70
2022/05/29 10:04:59;;;;;;;3.60;1.80;;;15.30;82.80;;;;;;5079638;28;20385;-67
2022/05/29 10:07:36;;;;;;;1.50;0.65;;;15.30;79.80;;;;;;5094670;28;20044;-69
2022/05/29 10:10:13;;;;;;;2.70;0.70;;;15.30;79.80;;;;;;5096712;28;20082;-68
2022/05/29 10:12:45;;;;;;;1.73;0.90;;;15.50;80.40;;;;;;5095775;28;20375;-69
2022/05/29 10:15:27;;;;;;;2.00;1.20;;;15.60;80.60;;;;;;5077836;28;20043;-68
2022/05/29 10:17:55;;;;;;;2.10;1.10;;;15.80;77.90;;;;;;5095667;28;20491;-68
2022/05/29 10:20:34;;;;;;;4.00;1.20;;;16.00;79.30;;;;;;5094584;28;20043;-69
2022/05/29 10:23:04;;;;;;;1.48;0.90;;;16.00;77.80;;;;;;5095668;28;20740;-69
2022/05/29 10:25:40;;;;;;;6.25;1.10;;;16.10;77.70;;;;;;5095414;28;20426;-69
2022/05/29 10:28:13;;;;;;;5.40;1.00;;;16.30;78.60;;;;;;5094995;28;20050;-69
2022/05/29 10:30:50;;;;;;;58.63;50.08;;;16.30;76.20;;;;;;5095892;28;20490;-69
2022/05/29 10:33:24;;;;;;;5.57;3.67;;;16.00;74.70;;;;;;5094255;28;20047;-67
2022/05/29 10:35:55;;;;;;;2.85;1.80;;;15.80;74.10;;;;;;5094344;28;20039;-67
2022/05/29 10:38:25;;;;;;;2.85;1.67;;;15.70;76.20;;;;;;5077841;28;20467;-65
2022/05/29 10:40:54;;;;;;;3.08;1.10;;;15.60;75.80;;;;;;5095123;28;20040;-63
2022/05/29 10:43:41;;;;;;;2.75;1.20;;;15.50;77.60;;;;;;5095221;28;20044;-68
2022/05/29 10:46:11;;;;;;;1.88;1.13;;;15.60;76.90;;;;;;5094410;28;20105;-57
2022/05/29 10:48:51;;;;;;;1.85;1.02;;;15.50;76.90;;;;;;5095235;28;20085;-66
2022/05/29 10:51:25;;;;;;;;;;;15.40;75.80;;;;;;5095655;28;20410;-66
2022/05/29 10:53:52;;;;;;;1.15;0.68;;;15.30;76.50;;;;;;5094238;28;19916;-65
2022/05/29 10:56:40;;;;;;;4.07;0.98;;;15.30;77.80;;;;;;5095065;28;20055;-66
2022/05/29 10:59:49;;;;;;;3.15;0.98;;;15.80;76.60;;;;;;5095889;28;20071;-63
2022/05/29 11:05:41;;;;;;;3.50;1.60;;;15.80;75.70;;;;;;5094965;28;20047;-64
2022/05/29 11:08:08;;;;;;;3.97;1.63;;;15.90;76.20;;;;;;5093779;28;20498;-69
2022/05/29 11:10:58;;;;;;;3.30;1.25;;;15.90;74.60;;;;;;5093847;28;20039;-65
2022/05/29 11:13:47;;;;;;;15.80;13.18;;;15.90;74.80;;;;;;5091216;28;20054;-63
2022/05/29 11:16:24;;;;;;;9.60;4.82;;;15.90;74.00;;;;;;5093699;28;20036;-64
2022/05/29 11:18:59;;;;;;;4.40;1.75;;;16.00;75.00;;;;;;5077591;28;20122;-65
2022/05/29 11:21:35;;;;;;;3.35;1.70;;;16.00;73.40;;;;;;5095470;28;20040;-66
2022/05/29 11:24:31;;;;;;;5.95;1.90;;;16.00;74.30;;;;;;5095682;28;20040;-65
2022/05/29 11:27:16;;;;;;;3.70;1.67;;;16.20;73.70;;;;;;5094166;28;20106;-65
2022/05/29 11:30:02;;;;;;;3.88;1.33;;;16.10;72.50;;;;;;5078105;28;20040;-65
2022/05/29 11:33:13;;;;;;;2.80;1.10;;;15.80;74.10;;;;;;5094418;28;20075;-65
2022/05/29 11:36:05;;;;;;;15.17;8.10;;;15.70;74.60;;;;;;5093125;28;20044;-70
2022/05/29 11:38:44;;;;;;;4.82;2.22;;;15.70;74.90;;;;;;5095186;28;20036;-70
2022/05/29 11:41:27;;;;;;;2.47;1.30;;;15.90;74.30;;;;;;5094230;28;20036;-69
2022/05/29 11:43:56;;;;;;;2.58;1.15;;;16.10;72.40;;;;;;5093812;28;20367;-70
2022/05/29 11:53:03;;;;;;;3.50;1.10;;;17.00;69.50;;;;;;5093164;28;20048;-69
2022/05/29 11:55:32;;;;;;;2.92;0.98;;;16.70;67.90;;;;;;5092792;28;20387;-73
2022/05/29 11:58:07;;;;;;;2.60;0.90;;;16.40;69.80;;;;;;5093058;28;20040;-73
2022/05/29 12:00:41;;;;;;;3.22;1.45;;;16.10;68.90;;;;;;5094513;28;20399;-74
2022/05/29 12:03:22;;;;;;;1.92;1.17;;;16.10;71.00;;;;;;5093532;28;20043;-74
2022/05/29 12:05:57;;;;;;;1.85;1.00;;;16.10;72.20;;;;;;5093529;28;20040;-73
2022/05/29 12:08:30;;;;;;;3.65;1.23;;;16.10;71.70;;;;;;5094095;28;20047;-73
2022/05/29 12:11:31;;;;;;;1.70;0.95;;;16.40;72.30;;;;;;5076866;28;20054;-72
2022/05/29 12:14:22;;;;;;;5.68;1.50;;;16.80;71.40;;;;;;5093133;28;20050;-72
2022/05/29 12:16:53;;;;;;;2.33;0.82;;;16.90;69.50;;;;;;5092647;28;20050;-73
2022/05/29 12:19:24;;;;;;;5.07;1.83;;;16.70;69.90;;;;;;5076270;28;20487;-76
2022/05/29 12:22:12;;;;;;;1.65;0.90;;;16.70;70.70;;;;;;5076004;28;20040;-78
2022/05/29 12:24:41;;;;;;;8.23;6.68;;;16.90;67.80;;;;;;5092559;28;20052;-66
2022/05/29 12:27:21;;;;;;;4.57;1.80;;;16.80;67.20;;;;;;5092304;28;20036;-65
2022/05/29 12:29:55;;;;;;;2.20;1.30;;;16.90;66.10;;;;;;5076563;28;20066;-65
2022/05/29 12:32:32;;;;;;;3.25;1.02;;;17.20;68.80;;;;;;5094318;28;20046;-65
2022/05/29 12:35:24;;;;;;;2.38;1.13;;;17.40;64.70;;;;;;5092328;28;20084;-65
2022/05/29 12:38:05;;;;;;;2.20;0.85;;;17.50;65.60;;;;;;5094266;28;20040;-65
2022/05/29 12:41:04;;;;;;;5.95;1.52;;;17.60;66.20;;;;;;5093435;28;20040;-65
2022/05/29 12:43:32;;;;;;;2.95;1.08;;;17.30;66.60;;;;;;5093761;28;20044;-66
2022/05/29 12:46:09;;;;;;;5.88;1.00;;;17.20;66.00;;;;;;5093568;28;20052;-66
2022/05/29 12:48:41;;;;;;;4.10;1.60;;;16.90;66.50;;;;;;5093333;28;20036;-65
2022/05/29 12:51:26;;;;;;;3.92;1.23;;;16.80;65.50;;;;;;5093254;28;20047;-66
2022/05/29 12:54:11;;;;;;;2.58;1.10;;;16.80;65.50;;;;;;5092589;28;20375;-68
2022/05/29 12:56:49;;;;;;;2.42;1.20;;;16.80;67.50;;;;;;5092550;28;20130;-68
2022/05/29 12:59:28;;;;;;;41.03;36.80;;;16.70;66.60;;;;;;5094432;28;20047;-62
2022/05/29 13:02:42;;;;;;;8.60;4.65;;;16.60;67.10;;;;;;5093240;28;20479;-69
2022/05/29 13:05:30;;;;;;;2.10;1.38;;;16.80;69.50;;;;;;5076812;28;20071;-68
2022/05/29 13:08:00;;;;;;;3.92;1.75;;;17.00;67.70;;;;;;5093855;28;20123;-60
2022/05/29 13:10:32;;;;;;;2.83;1.45;;;17.10;67.20;;;;;;5093840;28;20067;-62
2022/05/29 13:13:07;;;;;;;6.18;1.17;;;17.10;68.20;;;;;;5091881;28;20116;-54
2022/05/29 13:15:35;;;;;;;1.95;1.08;;;16.90;67.90;;;;;;5093173;28;20040;-62
2022/05/29 13:18:09;;;;;;;5.50;1.30;;;16.70;67.80;;;;;;5091692;28;20491;-45
2022/05/29 13:21:08;;;;;;;4.20;1.48;;;16.40;69.30;;;;;;5091952;28;20044;-71
2022/05/29 13:23:44;;;;;;;29.55;21.48;;;16.20;69.90;;;;;;5092293;28;20040;-65
2022/05/29 13:26:13;;;;;;;7.00;4.10;;;16.20;71.60;;;;;;5064567;28;20048;-77
2022/05/29 13:28:42;;;;;;;3.90;1.85;;;16.20;72.80;;;;;;5079371;28;20118;-71
2022/05/29 13:31:15;;;;;;;3.85;1.52;;;16.10;73.80;;;;;;5096523;28;20077;-77
2022/05/29 13:33:44;;;;;;;2.90;1.88;;;15.90;74.30;;;;;;5095914;28;20130;-66
2022/05/29 13:36:47;;;;;;;5.25;2.58;;;15.90;74.90;;;;;;5095559;28;20548;-61
2022/05/29 13:39:23;;;;;;;2.67;1.20;;;15.90;76.80;;;;;;5096719;28;20103;-67
2022/05/29 13:41:57;;;;;;;6.10;2.05;;;15.70;78.20;;;;;;5096863;28;20380;-68
2022/05/29 13:44:31;;;;;;;5.38;1.67;;;15.60;79.50;;;;;;5095345;28;20543;-64
2022/05/29 13:47:23;;;;;;;3.17;1.50;;;15.60;79.70;;;;;;5096194;28;20040;-71
2022/05/29 13:50:21;;;;;;;2.67;1.17;;;15.80;80.30;;;;;;5096052;28;20068;-67
2022/05/29 13:53:04;;;;;;;7.38;1.63;;;16.00;79.50;;;;;;5096051;28;20040;-66
2022/05/29 13:55:34;;;;;;;2.50;1.15;;;16.00;78.40;;;;;;5096148;28;20052;-64
2022/05/29 14:04:03;;;;;;;2.03;1.05;;;16.60;73.90;;;;;;5096394;28;20085;-62
2022/05/29 14:07:08;;;;;;;11.40;1.92;;;16.70;74.90;;;;;;5083515;28;20093;-64
2022/05/29 14:09:38;;;;;;;18.52;16.50;;;16.70;73.20;;;;;;5095978;28;20043;-61
2022/05/29 14:12:11;;;;;;;24.05;19.70;;;16.70;72.10;;;;;;5096026;28;20507;-65